Green, Kansas
Current Conditions -  °F | °C
As of 5:19 AM on Sunday 21 Dec 2014 (Local Time) from KMHK Reporting Station
Broken Clouds Broken Clouds  
Wind Chill: 34°   Ceiling: 2000
Heat Index: 38°   Visibility: 8mi
Dew Point: 36°   Wind: 5mph
Humidity: 93%   Direction: 210°SSW
Pressure: 29.98"   Gusts: NA
Location:  39.43°N, 97°W
Report Text: KMHK 211119Z AUTO 21004KT 8SM BKN020 03/02 A2998 RMK AO2 T00330022 TSNO
Loading
Personal Weather Stations






























Interactive Weather Map New forecast layout! Learn more

10-Day Weather Forecast

Advertisements
Track Severe Weather on mobile